Terminal Aerodrome Forecast
Issued by NWS Greer, SC

Home | Current Version | Previous Version | Text Only | Print | Product List | Glossary On
Versions: 1 2 3 4 5 6 7 8 9 10 11 12 13 14 15 16 17 18 19 20 21 22 23 24 25 26 27 28 29 30 31 32 33 34 35 36 37 38 39 40 41 42 43 44 45
000
FTUS42 KGSP 302122 AAA
TAFCLT
TAF AMD
KCLT 302122Z 3021/3118 13007KT P6SM VCSH SCT060 BKN100
      TEMPO 3021/3023 BKN060
     FM302300 16007KT P6SM SCT250
     FM310500 16006KT P6SM BKN040
     FM310900 17003KT P6SM BKN010
     FM311400 21004KT P6SM BKN250=

USA.gov is the U.S. government's official web portal to all federal, state and local government web resources and services.